Time;durP1;ratioP1;P1;durP2;ratioP2;P2;SDS_P1;SDS_P2;PMS_P1;PMS_P2;Temp;Humidity;BMP_temperature;BMP_pressure;BME280_temperature;BME280_humidity;BME280_pressure;Samples;Min_cycle;Max_cycle;Signal;HPM_P1;HPM_P2
2021/09/18 00:01:01;;;;;;;1.63;0.98;;;25.10;52.10;;;;;;5044929;28;20109;-58
2021/09/18 00:03:26;;;;;;;1.42;0.90;;;25.10;52.10;;;;;;5045048;28;20484;-59
2021/09/18 00:05:52;;;;;;;1.52;0.90;;;25.10;52.10;;;;;;5042559;28;20034;-58
2021/09/18 00:08:17;;;;;;;1.35;0.80;;;25.10;52.20;;;;;;5029558;28;20036;-58
2021/09/18 00:10:43;;;;;;;1.63;0.80;;;25.00;52.10;;;;;;5035236;28;20112;-61
2021/09/18 00:13:09;;;;;;;1.30;0.95;;;25.10;52.20;;;;;;5033261;28;20032;-60
2021/09/18 00:15:34;;;;;;;1.50;0.82;;;25.00;52.10;;;;;;5045099;28;20021;-60
2021/09/18 00:18:00;;;;;;;1.42;0.90;;;25.00;52.10;;;;;;5046638;28;20068;-61
2021/09/18 00:20:26;;;;;;;1.48;1.00;;;25.00;52.20;;;;;;5047004;28;20048;-57
2021/09/18 00:22:51;;;;;;;1.35;0.90;;;25.00;52.20;;;;;;5042558;28;20047;-61
2021/09/18 00:25:17;;;;;;;1.65;1.17;;;24.90;52.20;;;;;;5044576;28;20442;-57
2021/09/18 00:27:43;;;;;;;1.10;0.75;;;24.90;52.20;;;;;;5042200;28;20029;-53
2021/09/18 00:30:08;;;;;;;1.45;0.80;;;24.90;52.20;;;;;;5039456;28;20104;-61
2021/09/18 00:32:34;;;;;;;1.60;0.90;;;24.90;52.20;;;;;;5045065;28;20040;-61
2021/09/18 00:35:00;;;;;;;1.40;0.80;;;24.90;52.20;;;;;;5047153;28;20051;-57
2021/09/18 00:37:26;;;;;;;1.38;0.80;;;24.90;52.20;;;;;;5039575;28;20025;-61
2021/09/18 00:39:51;;;;;;;1.38;0.90;;;24.90;52.30;;;;;;5041799;28;20043;-57
2021/09/18 00:42:17;;;;;;;1.00;0.80;;;24.80;52.20;;;;;;5045243;28;20074;-57
2021/09/18 00:44:42;;;;;;;1.45;0.73;;;24.80;52.30;;;;;;5047056;28;20033;-56
2021/09/18 00:47:08;;;;;;;2.38;0.70;;;24.80;52.30;;;;;;5045845;28;20033;-62
2021/09/18 00:49:34;;;;;;;1.55;0.80;;;24.80;52.30;;;;;;5047062;28;20098;-57
2021/09/18 00:52:00;;;;;;;1.30;0.80;;;24.80;52.30;;;;;;5036078;28;20025;-61
2021/09/18 00:54:26;;;;;;;1.92;0.93;;;24.80;52.30;;;;;;5027681;28;20032;-59
2021/09/18 00:56:54;;;;;;;1.17;0.70;;;24.80;52.30;;;;;;5034176;28;20033;-59
2021/09/18 00:59:21;;;;;;;0.93;0.77;;;24.80;52.30;;;;;;5027256;28;20382;-61
2021/09/18 01:01:47;;;;;;;1.92;0.90;;;24.70;52.30;;;;;;5036017;28;20041;-58
2021/09/18 01:04:12;;;;;;;1.00;0.70;;;24.80;52.30;;;;;;5044168;28;20045;-60
2021/09/18 01:06:38;;;;;;;1.30;0.80;;;24.70;52.30;;;;;;5041762;28;20038;-57
2021/09/18 01:09:04;;;;;;;1.20;0.80;;;24.80;52.40;;;;;;5040921;28;20544;-59
2021/09/18 01:11:30;;;;;;;1.50;0.80;;;24.70;52.30;;;;;;5033943;28;20357;-60
2021/09/18 01:13:56;;;;;;;1.88;0.80;;;24.70;52.40;;;;;;5039317;28;20021;-57
2021/09/18 01:16:23;;;;;;;1.35;0.90;;;24.70;52.40;;;;;;5045289;28;20179;-61
2021/09/18 01:18:49;;;;;;;1.38;0.80;;;24.70;52.40;;;;;;5044367;28;20408;-60
2021/09/18 01:21:16;;;;;;;1.35;0.90;;;24.70;52.40;;;;;;5045850;28;20033;-60
2021/09/18 01:23:42;;;;;;;3.00;1.45;;;24.70;52.40;;;;;;5044012;28;20182;-60
2021/09/18 01:26:08;;;;;;;0.90;0.80;;;24.70;52.40;;;;;;5044838;28;20106;-60
2021/09/18 01:28:40;;;;;;;1.00;0.80;;;24.60;52.40;;;;;;5049609;28;20496;-55
2021/09/18 01:31:06;;;;;;;1.23;0.75;;;24.60;52.40;;;;;;5031007;28;20507;-57
2021/09/18 01:33:32;;;;;;;0.80;0.68;;;24.60;52.40;;;;;;5045346;28;20038;-59
2021/09/18 01:35:58;;;;;;;1.30;0.90;;;24.60;52.40;;;;;;5044553;28;20109;-57
2021/09/18 01:38:23;;;;;;;1.35;0.75;;;24.60;52.50;;;;;;5038799;28;20683;-58
2021/09/18 01:40:49;;;;;;;1.75;0.90;;;24.60;52.50;;;;;;5029703;28;20516;-60
2021/09/18 01:43:15;;;;;;;0.80;0.80;;;24.60;52.50;;;;;;5048599;28;20108;-61
2021/09/18 01:45:42;;;;;;;1.42;0.80;;;24.60;52.50;;;;;;5039165;28;20594;-58
2021/09/18 01:48:10;;;;;;;1.33;0.73;;;24.60;52.60;;;;;;5037805;28;20386;-58
2021/09/18 01:50:46;;;;;;;1.30;0.80;;;24.60;52.50;;;;;;5047896;28;20066;-58
2021/09/18 01:53:14;;;;;;;1.67;1.15;;;24.50;52.50;;;;;;5046895;28;20039;-56
2021/09/18 01:55:41;;;;;;;1.63;1.00;;;24.50;52.50;;;;;;5049100;28;20087;-57
2021/09/18 01:58:07;;;;;;;1.52;0.90;;;24.50;52.50;;;;;;5042476;28;20025;-58
2021/09/18 02:00:38;;;;;;;1.20;0.80;;;24.50;52.50;;;;;;5032742;28;20083;-57
2021/09/18 02:03:04;;;;;;;1.75;0.88;;;24.50;52.60;;;;;;5042780;28;20029;-58
2021/09/18 02:05:30;;;;;;;1.20;0.77;;;24.50;52.60;;;;;;5034746;28;20025;-61
2021/09/18 02:07:56;;;;;;;2.03;0.93;;;24.50;52.60;;;;;;5043061;28;20043;-55
2021/09/18 02:10:25;;;;;;;1.15;0.80;;;24.40;52.50;;;;;;5035604;28;20037;-60
2021/09/18 02:12:51;;;;;;;1.83;1.00;;;24.40;52.60;;;;;;5045462;28;20029;-59
2021/09/18 02:15:18;;;;;;;1.27;0.90;;;24.40;52.60;;;;;;5050203;28;20116;-60
2021/09/18 02:17:44;;;;;;;0.77;0.68;;;24.40;52.60;;;;;;5041445;28;20163;-57
2021/09/18 02:20:13;;;;;;;1.10;0.80;;;24.40;52.70;;;;;;5047985;28;20059;-58
2021/09/18 02:22:40;;;;;;;1.20;0.80;;;24.40;52.70;;;;;;5038239;28;20029;-55
2021/09/18 02:25:07;;;;;;;1.20;0.70;;;24.40;52.70;;;;;;5037558;28;20037;-56
2021/09/18 02:27:33;;;;;;;0.98;0.70;;;24.40;52.60;;;;;;5045638;28;20032;-58
2021/09/18 02:29:58;;;;;;;0.85;0.63;;;24.40;52.70;;;;;;5044287;28;20025;-57
2021/09/18 02:32:24;;;;;;;1.15;0.77;;;24.40;52.70;;;;;;5035506;28;20120;-61
2021/09/18 02:34:50;;;;;;;1.38;0.77;;;24.30;52.60;;;;;;5045787;28;20486;-61
2021/09/18 02:37:15;;;;;;;0.90;0.70;;;24.30;52.60;;;;;;5037851;28;20040;-57
2021/09/18 02:39:41;;;;;;;1.35;0.70;;;24.30;52.60;;;;;;5047916;28;20040;-56
2021/09/18 02:42:07;;;;;;;0.90;0.70;;;24.30;52.60;;;;;;5047032;28;20029;-61
2021/09/18 02:44:33;;;;;;;1.52;0.80;;;24.30;52.60;;;;;;5044927;28;20033;-60
2021/09/18 02:46:59;;;;;;;0.77;0.70;;;24.30;52.70;;;;;;5048620;28;20021;-60
2021/09/18 02:49:25;;;;;;;0.85;0.63;;;24.30;52.70;;;;;;5043012;28;20036;-55
2021/09/18 02:51:50;;;;;;;0.93;0.70;;;24.30;52.70;;;;;;5043222;28;20074;-60
2021/09/18 02:54:16;;;;;;;1.15;0.80;;;24.30;52.70;;;;;;5046887;28;20036;-59
2021/09/18 02:56:42;;;;;;;0.90;0.70;;;24.30;52.70;;;;;;5054068;28;20116;-59
2021/09/18 02:59:09;;;;;;;0.70;0.70;;;24.30;52.80;;;;;;5046611;28;20029;-61
2021/09/18 03:01:34;;;;;;;1.67;0.90;;;24.20;52.70;;;;;;5030581;28;20111;-61
2021/09/18 03:04:00;;;;;;;1.35;0.80;;;24.20;52.70;;;;;;5044411;28;20170;-60
2021/09/18 03:06:26;;;;;;;0.85;0.80;;;24.20;52.70;;;;;;5046922;28;20032;-55
2021/09/18 03:08:51;;;;;;;0.82;0.70;;;24.20;52.70;;;;;;5048795;28;20021;-56
2021/09/18 03:11:17;;;;;;;0.82;0.77;;;24.20;52.70;;;;;;5048232;28;20106;-60
2021/09/18 03:13:43;;;;;;;1.02;0.77;;;24.20;52.70;;;;;;5035084;28;20029;-61
2021/09/18 03:16:08;;;;;;;0.90;0.70;;;24.20;52.70;;;;;;5046867;28;20036;-60
2021/09/18 03:18:34;;;;;;;0.77;0.70;;;24.20;52.70;;;;;;5047084;28;20032;-58
2021/09/18 03:21:00;;;;;;;0.93;0.70;;;24.20;52.70;;;;;;5045605;28;20086;-56
2021/09/18 03:23:26;;;;;;;0.60;0.60;;;24.20;52.70;;;;;;5044254;28;20491;-61
2021/09/18 03:25:51;;;;;;;0.90;0.70;;;24.20;52.70;;;;;;5038277;28;20041;-60
2021/09/18 03:28:17;;;;;;;1.45;0.70;;;24.20;52.80;;;;;;5044972;28;20029;-58
2021/09/18 03:30:42;;;;;;;1.52;0.80;;;24.10;52.70;;;;;;5049643;28;20032;-61
2021/09/18 03:33:08;;;;;;;0.82;0.80;;;24.20;52.80;;;;;;5028636;28;20135;-54
2021/09/18 03:35:34;;;;;;;0.85;0.70;;;24.20;52.70;;;;;;5038253;28;20033;-60
2021/09/18 03:37:59;;;;;;;1.02;0.70;;;24.10;52.70;;;;;;5045267;28;20032;-60
2021/09/18 03:40:25;;;;;;;1.10;0.68;;;24.10;52.70;;;;;;5036733;28;20044;-56
2021/09/18 03:42:51;;;;;;;0.68;0.60;;;24.10;52.70;;;;;;5045358;28;20044;-60
2021/09/18 03:45:16;;;;;;;0.70;0.60;;;24.10;52.70;;;;;;5038779;28;20112;-58
2021/09/18 03:47:42;;;;;;;0.90;0.60;;;24.10;52.80;;;;;;5045407;28;20124;-55
2021/09/18 03:50:09;;;;;;;1.27;0.80;;;24.10;52.80;;;;;;5042722;28;20026;-57
2021/09/18 03:52:35;;;;;;;0.80;0.70;;;24.10;52.80;;;;;;5048204;28;20031;-60
2021/09/18 03:55:01;;;;;;;0.93;0.70;;;24.10;52.80;;;;;;5042910;28;20499;-50
2021/09/18 03:57:26;;;;;;;1.13;0.73;;;24.10;52.80;;;;;;5038142;28;20029;-57
2021/09/18 03:59:52;;;;;;;1.10;0.70;;;24.10;52.80;;;;;;5044486;28;20575;-60
2021/09/18 04:02:18;;;;;;;0.82;0.60;;;24.10;52.80;;;;;;5041761;28;20133;-60
2021/09/18 04:04:44;;;;;;;1.45;0.85;;;24.00;52.80;;;;;;5032031;28;20039;-57
2021/09/18 04:07:09;;;;;;;1.85;0.88;;;24.10;52.80;;;;;;5066357;28;20036;-60
2021/09/18 04:09:35;;;;;;;0.85;0.80;;;24.00;52.80;;;;;;5036574;28;20116;-60
2021/09/18 04:12:02;;;;;;;0.77;0.60;;;24.00;52.80;;;;;;5036784;28;20893;-59
2021/09/18 04:14:27;;;;;;;0.70;0.60;;;24.00;52.80;;;;;;5039677;28;20077;-59
2021/09/18 04:16:53;;;;;;;1.00;0.80;;;24.00;52.80;;;;;;5041989;28;20032;-59
2021/09/18 04:19:19;;;;;;;1.05;0.75;;;24.00;52.80;;;;;;5046715;28;20129;-61
2021/09/18 04:21:44;;;;;;;0.70;0.70;;;24.00;52.80;;;;;;5040988;28;20025;-54
2021/09/18 04:24:10;;;;;;;1.00;0.63;;;24.00;52.80;;;;;;5050314;28;20439;-51
2021/09/18 04:26:36;;;;;;;1.00;0.70;;;23.90;52.80;;;;;;5041565;28;20037;-60
2021/09/18 04:29:02;;;;;;;0.82;0.50;;;24.00;52.90;;;;;;5041685;28;20029;-60
2021/09/18 04:31:27;;;;;;;1.25;0.80;;;24.00;52.80;;;;;;5032206;28;20106;-57
2021/09/18 04:33:53;;;;;;;0.70;0.70;;;23.90;52.80;;;;;;5040646;28;20033;-61
2021/09/18 04:36:19;;;;;;;0.60;0.60;;;24.00;52.90;;;;;;5040855;28;20105;-58
2021/09/18 04:38:45;;;;;;;1.17;0.70;;;23.90;52.80;;;;;;5046814;28;20677;-58
2021/09/18 04:41:11;;;;;;;0.85;0.60;;;23.90;52.90;;;;;;5041645;28;20150;-61
2021/09/18 04:43:37;;;;;;;1.17;0.70;;;23.90;52.80;;;;;;5039743;28;20124;-60
2021/09/18 04:46:03;;;;;;;1.08;0.70;;;23.90;52.90;;;;;;5038833;28;20056;-58
2021/09/18 04:48:29;;;;;;;0.77;0.70;;;23.90;52.80;;;;;;5039205;28;20491;-56
2021/09/18 04:50:55;;;;;;;1.02;0.70;;;23.90;52.90;;;;;;5040399;28;20125;-60
2021/09/18 04:53:21;;;;;;;0.65;0.50;;;23.90;52.90;;;;;;5041947;28;20135;-58
2021/09/18 04:55:46;;;;;;;1.25;0.80;;;23.90;52.90;;;;;;5035586;28;20039;-61
2021/09/18 04:58:12;;;;;;;0.65;0.60;;;23.90;52.90;;;;;;5036602;28;20058;-57
2021/09/18 05:00:38;;;;;;;0.85;0.60;;;23.90;52.90;;;;;;5039846;28;20419;-58
2021/09/18 05:03:04;;;;;;;0.75;0.60;;;23.90;52.90;;;;;;5038970;28;20030;-55
2021/09/18 05:05:30;;;;;;;0.73;0.60;;;23.90;52.90;;;;;;5040611;28;20021;-56
2021/09/18 05:07:55;;;;;;;0.75;0.60;;;23.90;52.90;;;;;;5038982;28;20092;-61
2021/09/18 05:10:21;;;;;;;0.80;0.70;;;23.80;52.90;;;;;;5036565;28;20465;-60
2021/09/18 05:12:47;;;;;;;0.80;0.70;;;23.90;52.90;;;;;;5036333;28;20366;-60
2021/09/18 05:15:12;;;;;;;0.70;0.70;;;23.80;52.90;;;;;;5035654;28;20021;-54
2021/09/18 05:17:39;;;;;;;0.52;0.52;;;23.80;52.90;;;;;;5044168;28;20037;-54
2021/09/18 05:20:05;;;;;;;0.82;0.70;;;23.80;53.00;;;;;;5042734;28;20025;-57
2021/09/18 05:22:31;;;;;;;0.60;0.60;;;23.80;53.00;;;;;;5042053;28;20483;-57
2021/09/18 05:24:57;;;;;;;0.77;0.70;;;23.80;53.00;;;;;;5041384;28;20136;-56
2021/09/18 05:27:22;;;;;;;1.10;0.90;;;23.80;52.90;;;;;;5044705;28;20032;-60
2021/09/18 05:29:48;;;;;;;0.70;0.70;;;23.80;53.00;;;;;;5049481;28;20029;-55
2021/09/18 05:32:14;;;;;;;0.93;0.73;;;23.80;53.00;;;;;;5040707;28;20048;-60
2021/09/18 05:34:39;;;;;;;0.60;0.60;;;23.70;52.90;;;;;;5045024;28;20033;-57
2021/09/18 05:37:05;;;;;;;0.73;0.60;;;23.80;53.00;;;;;;5045971;28;20021;-56
2021/09/18 05:39:32;;;;;;;0.93;0.60;;;23.80;53.00;;;;;;5048888;28;20048;-59
2021/09/18 05:41:57;;;;;;;0.88;0.65;;;23.80;53.00;;;;;;5049051;28;20040;-56
2021/09/18 05:44:23;;;;;;;0.60;0.50;;;23.70;53.00;;;;;;5045371;28;20040;-55
2021/09/18 05:46:49;;;;;;;0.47;0.47;;;23.70;53.00;;;;;;5042756;28;20097;-52
2021/09/18 05:49:15;;;;;;;0.60;0.60;;;23.70;53.00;;;;;;5038319;28;21814;-57
2021/09/18 05:51:40;;;;;;;1.15;0.80;;;23.70;53.00;;;;;;5037570;28;20048;-59
2021/09/18 05:54:06;;;;;;;1.05;0.60;;;23.70;53.00;;;;;;5040946;28;20116;-60
2021/09/18 05:56:31;;;;;;;1.48;0.60;;;23.70;53.00;;;;;;5042670;28;20111;-56
2021/09/18 05:58:57;;;;;;;0.55;0.55;;;23.70;53.00;;;;;;5042331;28;20655;-60
2021/09/18 06:01:23;;;;;;;0.55;0.55;;;23.70;53.00;;;;;;5040956;28;20373;-60
2021/09/18 06:03:48;;;;;;;0.68;0.60;;;23.70;53.00;;;;;;5048289;28;20371;-60
2021/09/18 06:06:14;;;;;;;1.02;0.65;;;23.70;53.00;;;;;;5036946;28;20115;-58
2021/09/18 06:08:39;;;;;;;1.15;0.65;;;23.70;53.00;;;;;;5043874;28;20052;-58
2021/09/18 06:11:06;;;;;;;0.75;0.73;;;23.70;53.00;;;;;;5044005;28;20060;-55
2021/09/18 06:13:32;;;;;;;0.90;0.60;;;23.70;53.00;;;;;;5041291;28;20025;-55
2021/09/18 06:15:58;;;;;;;0.90;0.70;;;23.70;53.10;;;;;;5041147;28;20410;-55
2021/09/18 06:18:24;;;;;;;1.25;0.60;;;23.60;53.00;;;;;;5048290;28;20044;-53
2021/09/18 06:20:51;;;;;;;0.73;0.70;;;23.60;53.00;;;;;;5047669;28;20048;-60
2021/09/18 06:23:17;;;;;;;1.00;0.80;;;23.60;53.00;;;;;;5045790;28;20086;-58
2021/09/18 06:25:42;;;;;;;1.30;0.70;;;23.60;53.00;;;;;;5045998;28;20132;-60
2021/09/18 06:28:08;;;;;;;1.00;0.70;;;23.60;53.00;;;;;;5030417;28;20088;-59
2021/09/18 06:30:34;;;;;;;0.70;0.70;;;23.60;53.00;;;;;;5046241;28;20545;-53
2021/09/18 06:32:59;;;;;;;0.82;0.70;;;23.60;53.00;;;;;;5044516;28;20036;-60
2021/09/18 06:35:25;;;;;;;0.57;0.57;;;23.60;53.00;;;;;;5046769;28;20100;-55
2021/09/18 06:37:51;;;;;;;0.80;0.75;;;23.60;53.00;;;;;;5042055;28;20033;-58
2021/09/18 06:40:19;;;;;;;0.85;0.70;;;23.60;53.00;;;;;;5049047;28;20546;-56
2021/09/18 06:42:45;;;;;;;0.82;0.70;;;23.60;53.00;;;;;;5047067;28;20033;-59
2021/09/18 06:45:12;;;;;;;1.77;0.70;;;23.60;53.10;;;;;;5036989;28;20047;-60
2021/09/18 06:47:38;;;;;;;0.98;0.70;;;23.60;53.10;;;;;;5040581;28;20025;-55
2021/09/18 06:50:05;;;;;;;1.13;0.70;;;23.60;53.00;;;;;;5044167;28;20112;-58
2021/09/18 06:52:30;;;;;;;0.65;0.65;;;23.60;53.00;;;;;;5047278;28;20495;-57
2021/09/18 06:54:56;;;;;;;1.00;0.60;;;23.60;53.00;;;;;;5044381;28;20135;-54
2021/09/18 06:57:22;;;;;;;0.85;0.60;;;23.60;53.10;;;;;;5040083;28;20026;-59
2021/09/18 06:59:48;;;;;;;0.50;0.50;;;23.60;53.10;;;;;;5039294;28;20108;-60
2021/09/18 07:02:13;;;;;;;0.70;0.65;;;23.60;53.00;;;;;;5038853;28;20112;-61
2021/09/18 07:04:39;;;;;;;0.88;0.77;;;23.60;53.10;;;;;;5038778;28;20597;-58
2021/09/18 07:07:05;;;;;;;1.20;0.75;;;23.60;53.10;;;;;;5038149;28;20036;-56
2021/09/18 07:09:31;;;;;;;1.27;0.70;;;23.50;53.00;;;;;;5043810;28;20421;-59
2021/09/18 07:11:56;;;;;;;1.95;0.70;;;23.50;53.00;;;;;;5038098;28;20048;-57
2021/09/18 07:14:22;;;;;;;0.70;0.63;;;23.60;53.10;;;;;;5041857;28;20067;-59
2021/09/18 07:16:48;;;;;;;0.90;0.73;;;23.50;53.00;;;;;;5035186;28;20069;-59
2021/09/18 07:19:14;;;;;;;0.88;0.60;;;23.50;53.00;;;;;;5040493;28;20492;-58
2021/09/18 07:21:40;;;;;;;1.58;0.90;;;23.50;53.00;;;;;;5044749;28;20589;-58
2021/09/18 07:24:06;;;;;;;0.77;0.70;;;23.50;53.00;;;;;;5033225;28;20141;-56
2021/09/18 07:26:36;;;;;;;1.20;0.88;;;23.50;53.00;;;;;;5037129;28;20132;-60
2021/09/18 07:29:02;;;;;;;0.60;0.52;;;23.50;53.00;;;;;;5038886;28;20029;-59
2021/09/18 07:31:28;;;;;;;0.73;0.70;;;23.50;53.00;;;;;;5033304;28;20028;-55
2021/09/18 07:33:54;;;;;;;1.38;0.73;;;23.50;53.00;;;;;;5031024;28;20147;-55
2021/09/18 07:36:19;;;;;;;1.02;0.70;;;23.50;53.00;;;;;;5036924;28;20087;-60
2021/09/18 07:38:46;;;;;;;0.80;0.80;;;23.50;53.00;;;;;;5028115;28;20040;-55
2021/09/18 07:41:11;;;;;;;1.05;0.73;;;23.50;53.00;;;;;;5042372;28;20393;-59
2021/09/18 07:43:37;;;;;;;0.65;0.60;;;23.50;53.00;;;;;;5041523;28;20044;-59
2021/09/18 07:46:03;;;;;;;1.30;0.80;;;23.50;53.00;;;;;;5035889;28;20026;-59
2021/09/18 07:48:29;;;;;;;1.02;0.70;;;23.40;52.90;;;;;;5056955;28;20049;-58
2021/09/18 07:50:56;;;;;;;0.73;0.70;;;23.50;52.90;;;;;;5044881;28;20064;-51
2021/09/18 07:53:21;;;;;;;1.15;0.80;;;23.40;52.80;;;;;;5041427;28;20131;-57
2021/09/18 07:55:47;;;;;;;0.60;0.60;;;23.40;52.80;;;;;;5043766;28;20119;-59
2021/09/18 07:58:13;;;;;;;1.13;0.60;;;23.40;52.80;;;;;;5045820;28;20413;-53
2021/09/18 08:00:39;;;;;;;0.70;0.63;;;23.40;52.80;;;;;;5037435;28;20115;-60
2021/09/18 08:03:05;;;;;;;0.85;0.70;;;23.40;52.80;;;;;;5031633;28;20423;-53
2021/09/18 08:05:30;;;;;;;0.77;0.60;;;23.40;52.80;;;;;;5036653;28;20427;-58
2021/09/18 08:07:56;;;;;;;1.30;0.80;;;23.40;52.80;;;;;;5032272;28;20060;-57
2021/09/18 08:10:22;;;;;;;1.77;1.20;;;23.40;52.80;;;;;;5032717;28;20117;-60
2021/09/18 08:12:48;;;;;;;0.80;0.80;;;23.40;52.90;;;;;;5031957;28;20117;-55
2021/09/18 08:15:16;;;;;;;0.90;0.80;;;23.40;52.90;;;;;;5043192;28;20099;-54
2021/09/18 08:17:44;;;;;;;1.50;0.73;;;23.40;52.90;;;;;;5045626;28;20030;-58
2021/09/18 08:20:10;;;;;;;0.80;0.70;;;23.40;52.90;;;;;;5045663;28;20029;-57
2021/09/18 08:22:36;;;;;;;0.82;0.70;;;23.40;52.90;;;;;;5037240;28;20502;-55
2021/09/18 08:25:07;;;;;;;0.95;0.65;;;23.40;52.90;;;;;;5040765;28;20430;-59
2021/09/18 08:27:32;;;;;;;0.60;0.60;;;23.40;52.90;;;;;;5030618;28;20079;-57
2021/09/18 08:29:58;;;;;;;1.42;0.60;;;23.40;52.90;;;;;;5046492;28;20060;-53
2021/09/18 08:32:24;;;;;;;0.77;0.68;;;23.40;52.90;;;;;;5031477;28;20480;-60
2021/09/18 08:34:49;;;;;;;1.30;0.73;;;23.40;52.90;;;;;;5039097;28;20037;-60
2021/09/18 08:37:17;;;;;;;1.33;0.80;;;23.40;52.90;;;;;;5031898;28;20369;-54
2021/09/18 08:39:42;;;;;;;0.93;0.70;;;23.40;52.90;;;;;;5040660;28;20067;-57
2021/09/18 08:42:09;;;;;;;1.00;0.73;;;23.40;52.90;;;;;;5046164;28;20037;-60
2021/09/18 08:44:36;;;;;;;0.70;0.70;;;23.40;52.90;;;;;;5041902;28;20512;-53
2021/09/18 08:47:02;;;;;;;0.90;0.80;;;23.40;53.00;;;;;;5040758;28;20025;-58
2021/09/18 08:49:31;;;;;;;1.10;0.68;;;23.40;52.90;;;;;;5034659;28;20089;-61
2021/09/18 08:51:56;;;;;;;1.20;0.80;;;23.40;52.90;;;;;;5037190;28;20025;-55
2021/09/18 08:54:22;;;;;;;1.05;0.70;;;23.40;52.90;;;;;;5042432;28;20040;-59
2021/09/18 08:56:48;;;;;;;0.70;0.70;;;23.40;52.90;;;;;;5029652;28;20101;-60
2021/09/18 08:59:13;;;;;;;0.93;0.70;;;23.40;52.90;;;;;;5035874;28;20053;-58
2021/09/18 09:01:39;;;;;;;0.80;0.75;;;23.40;52.90;;;;;;5044828;28;20045;-61
2021/09/18 09:04:07;;;;;;;0.95;0.75;;;23.40;52.90;;;;;;5037601;28;20111;-58
2021/09/18 09:06:43;;;;;;;1.17;0.82;;;23.40;52.90;;;;;;5038421;28;20037;-57
2021/09/18 09:09:09;;;;;;;0.70;0.70;;;23.40;52.80;;;;;;5054773;28;20498;-55
2021/09/18 09:11:35;;;;;;;0.80;0.70;;;23.40;52.90;;;;;;5046259;28;20021;-51
2021/09/18 09:14:05;;;;;;;0.70;0.70;;;23.40;52.90;;;;;;5039426;28;20025;-54
2021/09/18 09:16:34;;;;;;;0.77;0.70;;;23.40;52.80;;;;;;5042333;28;20034;-58
2021/09/18 09:19:16;;;;;;;1.10;0.70;;;23.40;52.80;;;;;;5033962;28;20033;-59
2021/09/18 09:21:50;;;;;;;1.20;0.70;;;23.40;52.80;;;;;;5044208;28;20271;-56
2021/09/18 09:24:18;;;;;;;1.05;0.80;;;23.40;52.80;;;;;;5044870;28;20121;-59
2021/09/18 09:27:10;;;;;;;1.80;0.80;;;23.40;52.80;;;;;;5032151;28;20033;-55
2021/09/18 09:29:57;;;;;;;1.23;0.82;;;23.40;52.90;;;;;;5034411;28;20026;-55
2021/09/18 09:32:26;;;;;;;0.85;0.77;;;23.40;53.40;;;;;;5037354;28;20029;-54
2021/09/18 09:34:53;;;;;;;1.02;0.80;;;23.40;52.90;;;;;;5041298;28;20083;-59
2021/09/18 09:37:19;;;;;;;1.35;0.90;;;23.40;52.80;;;;;;5038626;28;20044;-52
2021/09/18 09:39:53;;;;;;;1.17;1.05;;;23.40;52.90;;;;;;5034812;28;20104;-60
2021/09/18 09:42:30;;;;;;;1.90;1.00;;;23.40;52.90;;;;;;5030069;28;20140;-60
2021/09/18 09:45:15;;;;;;;2.13;0.80;;;23.40;52.90;;;;;;5036372;28;20037;-55
2021/09/18 09:47:41;;;;;;;1.50;0.88;;;23.40;52.90;;;;;;5027744;28;20030;-55
2021/09/18 09:50:07;;;;;;;1.13;0.90;;;23.40;52.90;;;;;;5028615;28;20128;-60
2021/09/18 09:52:35;;;;;;;1.13;0.80;;;23.40;52.90;;;;;;5031255;28;20061;-59
2021/09/18 09:55:07;;;;;;;1.48;1.00;;;23.40;52.90;;;;;;5037231;28;20028;-55
2021/09/18 09:57:33;;;;;;;1.58;1.02;;;23.40;52.80;;;;;;5034223;28;20708;-59
2021/09/18 10:00:00;;;;;;;1.20;0.80;;;23.40;52.80;;;;;;5030682;28;20029;-61
2021/09/18 10:02:27;;;;;;;1.08;0.90;;;23.40;52.80;;;;;;5039978;28;20069;-59
2021/09/18 10:04:53;;;;;;;2.22;0.90;;;23.40;52.90;;;;;;5037053;28;20042;-60
2021/09/18 10:07:20;;;;;;;2.50;1.23;;;23.40;52.80;;;;;;5031368;28;20044;-55
2021/09/18 10:09:47;;;;;;;1.00;0.90;;;23.40;52.80;;;;;;5031787;28;20125;-60
2021/09/18 10:12:14;;;;;;;1.40;1.00;;;23.40;52.80;;;;;;5034847;28;20112;-61
2021/09/18 10:14:47;;;;;;;1.55;0.90;;;23.40;52.80;;;;;;5043110;28;20360;-60
2021/09/18 10:17:13;;;;;;;1.88;1.05;;;23.40;52.80;;;;;;5038004;28;20519;-56
2021/09/18 10:24:50;;;;;;;1.90;1.10;;;23.40;52.90;;;;;;5040036;28;20049;-55
2021/09/18 10:27:22;;;;;;;1.02;0.88;;;23.40;53.00;;;;;;5037425;28;22123;-61
2021/09/18 10:29:49;;;;;;;1.95;0.85;;;23.50;53.00;;;;;;5037432;28;20028;-55
2021/09/18 10:32:16;;;;;;;1.67;0.93;;;23.50;53.00;;;;;;5035526;28;20037;-59
2021/09/18 10:34:42;;;;;;;2.25;0.95;;;23.50;53.00;;;;;;5035730;28;20126;-58
2021/09/18 10:37:32;;;;;;;2.22;1.10;;;23.50;53.10;;;;;;5044655;28;20174;-59
2021/09/18 10:40:17;;;;;;;1.70;0.88;;;23.50;53.10;;;;;;5040209;28;20064;-58
2021/09/18 10:42:48;;;;;;;1.48;1.00;;;23.40;53.10;;;;;;5039659;28;20497;-58
2021/09/18 10:45:16;;;;;;;1.52;0.80;;;23.50;53.10;;;;;;5040626;28;20036;-60
2021/09/18 10:47:48;;;;;;;1.85;1.08;;;23.50;53.10;;;;;;5046230;28;20128;-60
2021/09/18 10:50:25;;;;;;;2.33;1.00;;;23.50;53.10;;;;;;5040090;28;20499;-59
2021/09/18 10:53:15;;;;;;;2.08;1.00;;;23.50;53.10;;;;;;5048469;28;20028;-58
2021/09/18 10:55:51;;;;;;;1.40;1.10;;;23.50;53.20;;;;;;5027631;28;20539;-57
2021/09/18 10:58:17;;;;;;;3.33;1.02;;;23.50;53.20;;;;;;5036736;28;20029;-54
2021/09/18 11:00:50;;;;;;;1.45;1.05;;;23.50;53.70;;;;;;5036873;28;20052;-58
2021/09/18 11:03:31;;;;;;;2.88;1.20;;;23.50;53.20;;;;;;5033141;28;20100;-57
2021/09/18 11:05:58;;;;;;;1.98;1.00;;;23.50;53.60;;;;;;5038303;28;20040;-60
2021/09/18 11:08:29;;;;;;;2.30;1.08;;;23.60;53.10;;;;;;5030479;28;20032;-58
2021/09/18 11:10:57;;;;;;;1.85;1.15;;;23.50;53.10;;;;;;5045710;28;20064;-59
2021/09/18 11:13:26;;;;;;;1.60;1.10;;;23.60;53.20;;;;;;5037474;28;20034;-57
2021/09/18 11:15:56;;;;;;;1.70;1.00;;;23.60;53.20;;;;;;5041104;28;20029;-59
2021/09/18 11:18:29;;;;;;;3.10;1.20;;;23.60;53.20;;;;;;5029270;28;20028;-58
2021/09/18 11:21:07;;;;;;;2.10;1.13;;;23.60;53.20;;;;;;5033423;28;20036;-59
2021/09/18 11:23:44;;;;;;;2.22;1.30;;;23.60;53.20;;;;;;5036872;28;20025;-57
2021/09/18 11:26:39;;;;;;;2.78;1.00;;;23.60;53.20;;;;;;5034856;28;22211;-60
2021/09/18 11:29:29;;;;;;;2.17;0.95;;;23.60;53.10;;;;;;5021881;28;20041;-57
2021/09/18 11:31:57;;;;;;;3.72;1.20;;;23.60;53.20;;;;;;5038937;28;20033;-59
2021/09/18 11:34:25;;;;;;;2.20;1.10;;;23.60;53.10;;;;;;5038840;28;20078;-57
2021/09/18 11:36:53;;;;;;;2.50;1.30;;;23.60;53.20;;;;;;5041293;28;20547;-60
2021/09/18 11:39:42;;;;;;;2.08;0.95;;;23.60;53.20;;;;;;5031508;28;20470;-60
2021/09/18 11:42:19;;;;;;;2.13;1.20;;;23.60;53.20;;;;;;5029104;28;20113;-54
2021/09/18 11:44:46;;;;;;;3.55;1.20;;;23.60;53.10;;;;;;5040212;28;20037;-59
2021/09/18 11:47:12;;;;;;;1.10;0.90;;;23.60;53.10;;;;;;5049806;28;20043;-56
2021/09/18 11:49:37;;;;;;;1.85;0.90;;;23.60;53.10;;;;;;5043985;28;20056;-56
2021/09/18 11:52:05;;;;;;;2.17;1.10;;;23.60;53.20;;;;;;5035489;28;20071;-58
2021/09/18 11:54:32;;;;;;;2.05;1.00;;;23.60;53.30;;;;;;5031554;28;21761;-60
2021/09/18 11:57:18;;;;;;;2.60;0.90;;;23.60;53.30;;;;;;5034331;28;20044;-57
2021/09/18 11:59:45;;;;;;;1.75;1.08;;;23.60;53.30;;;;;;5034854;28;20033;-57
2021/09/18 12:02:11;;;;;;;3.00;1.15;;;23.70;53.30;;;;;;5041155;28;20077;-56
2021/09/18 12:04:48;;;;;;;2.38;1.20;;;23.70;53.30;;;;;;5038133;28;20087;-57
2021/09/18 12:07:14;;;;;;;1.85;1.10;;;23.70;53.30;;;;;;5036652;28;20116;-59
2021/09/18 12:09:41;;;;;;;1.60;1.08;;;23.70;53.30;;;;;;5036272;28;20029;-58
2021/09/18 12:12:07;;;;;;;2.60;1.10;;;23.70;53.30;;;;;;5035462;28;20029;-58
2021/09/18 12:14:34;;;;;;;2.90;1.02;;;23.70;53.20;;;;;;5038345;28;20049;-60
2021/09/18 12:17:19;;;;;;;3.33;1.50;;;23.70;53.20;;;;;;5033657;28;20026;-60
2021/09/18 12:19:46;;;;;;;2.22;1.00;;;23.70;53.20;;;;;;5041220;28;20040;-57
2021/09/18 12:22:13;;;;;;;1.65;1.00;;;23.70;53.20;;;;;;5034295;28;20048;-58
2021/09/18 12:24:41;;;;;;;1.83;1.00;;;23.70;53.20;;;;;;5040495;28;20037;-58
2021/09/18 12:27:29;;;;;;;1.60;1.00;;;23.70;53.20;;;;;;5031656;28;20026;-58
2021/09/18 12:29:57;;;;;;;1.77;1.00;;;23.70;53.10;;;;;;5035684;28;20203;-59
2021/09/18 12:32:23;;;;;;;3.05;1.20;;;23.70;53.10;;;;;;5029642;28;20033;-59
2021/09/18 12:34:49;;;;;;;2.13;1.10;;;23.70;53.10;;;;;;5041046;28;20021;-60
2021/09/18 12:37:17;;;;;;;2.30;1.10;;;23.70;53.10;;;;;;5033176;28;20112;-60
2021/09/18 12:39:43;;;;;;;1.88;1.00;;;23.70;53.00;;;;;;5028907;28;20033;-57
2021/09/18 12:42:10;;;;;;;1.58;1.00;;;23.80;53.10;;;;;;5046134;28;20033;-56
2021/09/18 12:44:39;;;;;;;2.92;1.02;;;23.70;53.00;;;;;;5034968;28;20052;-57
2021/09/18 12:47:05;;;;;;;2.10;1.00;;;23.80;53.00;;;;;;5041390;28;20035;-58
2021/09/18 12:49:34;;;;;;;2.30;0.98;;;23.70;53.00;;;;;;5032668;28;20037;-59
2021/09/18 12:52:04;;;;;;;2.42;1.10;;;23.80;53.00;;;;;;5035333;28;20512;-59
2021/09/18 12:54:44;;;;;;;1.88;1.00;;;23.80;53.00;;;;;;5043156;28;20052;-59